sensor_id;sensor_type;location;lat;lon;timestamp;pressure;altitude;pressure_sealevel;temperature;humidity
75747;BME280;64363;52.198;21.020;2022-12-17T00:00:09;100500.28;;;-2.49;85.43
75747;BME280;64363;52.198;21.020;2022-12-17T00:03:13;100511.31;;;-2.60;83.90
75747;BME280;64363;52.198;21.020;2022-12-17T00:05:57;100517.44;;;-2.60;85.08
75747;BME280;64363;52.198;21.020;2022-12-17T00:08:42;100516.53;;;-2.60;85.07
75747;BME280;64363;52.198;21.020;2022-12-17T00:11:26;100526.97;;;-2.60;84.97
75747;BME280;64363;52.198;21.020;2022-12-17T00:14:10;100529.47;;;-2.66;84.45
75747;BME280;64363;52.198;21.020;2022-12-17T00:16:55;100525.03;;;-2.70;85.91
75747;BME280;64363;52.198;21.020;2022-12-17T00:19:42;100525.75;;;-2.76;85.39
75747;BME280;64363;52.198;21.020;2022-12-17T00:22:27;100526.78;;;-2.69;85.78
75747;BME280;64363;52.198;21.020;2022-12-17T00:25:11;100530.34;;;-2.66;85.05
75747;BME280;64363;52.198;21.020;2022-12-17T00:27:57;100541.78;;;-2.61;85.88
75747;BME280;64363;52.198;21.020;2022-12-17T00:30:42;100552.25;;;-2.59;85.33
75747;BME280;64363;52.198;21.020;2022-12-17T00:33:26;100543.41;;;-2.64;85.74
75747;BME280;64363;52.198;21.020;2022-12-17T00:36:10;100548.63;;;-2.64;85.55
75747;BME280;64363;52.198;21.020;2022-12-17T00:38:55;100557.44;;;-2.61;86.06
75747;BME280;64363;52.198;21.020;2022-12-17T00:41:39;100560.06;;;-2.59;85.97
75747;BME280;64363;52.198;21.020;2022-12-17T00:44:23;100556.56;;;-2.61;85.40
75747;BME280;64363;52.198;21.020;2022-12-17T00:47:08;100563.69;;;-2.54;85.64
75747;BME280;64363;52.198;21.020;2022-12-17T00:49:52;100553.25;;;-2.54;85.16
75747;BME280;64363;52.198;21.020;2022-12-17T00:52:36;100558.34;;;-2.59;86.22
75747;BME280;64363;52.198;21.020;2022-12-17T00:55:21;100544.00;;;-2.77;86.65
75747;BME280;64363;52.198;21.020;2022-12-17T00:58:05;100560.56;;;-2.75;86.73
75747;BME280;64363;52.198;21.020;2022-12-17T01:00:50;100567.72;;;-2.67;86.50
75747;BME280;64363;52.198;21.020;2022-12-17T01:03:34;100571.16;;;-2.68;86.98
75747;BME280;64363;52.198;21.020;2022-12-17T01:06:18;100569.50;;;-2.66;86.98
75747;BME280;64363;52.198;21.020;2022-12-17T01:09:03;100571.16;;;-2.68;85.82
75747;BME280;64363;52.198;21.020;2022-12-17T01:11:47;100577.09;;;-2.75;86.65
75747;BME280;64363;52.198;21.020;2022-12-17T01:14:31;100577.94;;;-2.76;87.21
75747;BME280;64363;52.198;21.020;2022-12-17T01:17:16;100563.22;;;-2.72;87.02
75747;BME280;64363;52.198;21.020;2022-12-17T01:20:00;100558.00;;;-2.74;86.44
75747;BME280;64363;52.198;21.020;2022-12-17T01:22:45;100548.50;;;-2.70;87.13
75747;BME280;64363;52.198;21.020;2022-12-17T01:25:29;100567.78;;;-2.64;86.70
75747;BME280;64363;52.198;21.020;2022-12-17T01:28:20;100570.97;;;-2.75;87.24
75747;BME280;64363;52.198;21.020;2022-12-17T01:31:18;100584.84;;;-2.78;88.02
75747;BME280;64363;52.198;21.020;2022-12-17T01:34:03;100576.25;;;-2.74;87.38
75747;BME280;64363;52.198;21.020;2022-12-17T01:36:47;100575.31;;;-2.76;86.75
75747;BME280;64363;52.198;21.020;2022-12-17T01:39:32;100573.66;;;-2.74;87.47
75747;BME280;64363;52.198;21.020;2022-12-17T01:42:16;100572.00;;;-2.70;86.86
75747;BME280;64363;52.198;21.020;2022-12-17T01:45:02;100569.31;;;-2.72;87.02
75747;BME280;64363;52.198;21.020;2022-12-17T01:47:56;100565.84;;;-2.72;86.71
75747;BME280;64363;52.198;21.020;2022-12-17T01:50:45;100577.97;;;-2.74;87.20
75747;BME280;64363;52.198;21.020;2022-12-17T01:53:35;100577.03;;;-2.76;87.18
75747;BME280;64363;52.198;21.020;2022-12-17T01:56:20;100587.41;;;-2.79;87.19
75747;BME280;64363;52.198;21.020;2022-12-17T01:59:06;100596.31;;;-2.71;87.29
75747;BME280;64363;52.198;21.020;2022-12-17T02:01:51;100597.25;;;-2.69;86.18
75747;BME280;64363;52.198;21.020;2022-12-17T02:04:36;100600.63;;;-2.72;86.96
75747;BME280;64363;52.198;21.020;2022-12-17T02:10:33;100598.78;;;-2.76;86.84
75747;BME280;64363;52.198;21.020;2022-12-17T02:13:35;100589.13;;;-2.81;86.56
75747;BME280;64363;52.198;21.020;2022-12-17T02:16:30;100596.81;;;-2.86;86.65
75747;BME280;64363;52.198;21.020;2022-12-17T02:25:36;100602.75;;;-2.92;88.16
75747;BME280;64363;52.198;21.020;2022-12-17T02:28:23;100586.13;;;-2.95;87.82
75747;BME280;64363;52.198;21.020;2022-12-17T02:31:08;100591.44;;;-2.92;88.00
75747;BME280;64363;52.198;21.020;2022-12-17T02:33:54;100585.38;;;-2.91;88.46
75747;BME280;64363;52.198;21.020;2022-12-17T02:36:40;100571.44;;;-2.92;88.60
75747;BME280;64363;52.198;21.020;2022-12-17T02:39:24;100583.34;;;-3.03;87.71
75747;BME280;64363;52.198;21.020;2022-12-17T02:42:08;100580.69;;;-3.04;88.11
75747;BME280;64363;52.198;21.020;2022-12-17T02:44:53;100581.63;;;-3.02;88.39
75747;BME280;64363;52.198;21.020;2022-12-17T02:47:38;100585.19;;;-2.99;87.82
75747;BME280;64363;52.198;21.020;2022-12-17T02:50:22;100587.84;;;-2.97;88.45
75747;BME280;64363;52.198;21.020;2022-12-17T02:53:07;100582.69;;;-2.94;87.92
75747;BME280;64363;52.198;21.020;2022-12-17T02:55:51;100595.63;;;-2.99;88.25
75747;BME280;64363;52.198;21.020;2022-12-17T02:58:35;100604.34;;;-2.97;88.00
75747;BME280;64363;52.198;21.020;2022-12-17T03:01:19;100594.59;;;-3.05;88.52
75747;BME280;64363;52.198;21.020;2022-12-17T03:04:03;100588.47;;;-3.06;88.29
75747;BME280;64363;52.198;21.020;2022-12-17T03:06:48;100592.06;;;-3.01;89.13
75747;BME280;64363;52.198;21.020;2022-12-17T03:09:32;100604.53;;;-2.91;88.46
75747;BME280;64363;52.198;21.020;2022-12-17T03:12:17;100596.75;;;-2.88;89.33
75747;BME280;64363;52.198;21.020;2022-12-17T03:15:01;100592.31;;;-2.92;88.18
75747;BME280;64363;52.198;21.020;2022-12-17T03:17:45;100599.22;;;-2.94;87.91
75747;BME280;64363;52.198;21.020;2022-12-17T03:20:30;100598.38;;;-2.93;87.87
75747;BME280;64363;52.198;21.020;2022-12-17T03:23:14;100594.84;;;-2.95;89.04
75747;BME280;64363;52.198;21.020;2022-12-17T03:26:00;100596.56;;;-2.95;88.05
75747;BME280;64363;52.198;21.020;2022-12-17T03:28:45;100587.78;;;-2.99;87.24
75747;BME280;64363;52.198;21.020;2022-12-17T03:31:29;100592.88;;;-3.03;87.25
75747;BME280;64363;52.198;21.020;2022-12-17T03:34:13;100585.09;;;-3.02;88.37
75747;BME280;64363;52.198;21.020;2022-12-17T03:36:57;100585.09;;;-3.02;87.52
75747;BME280;64363;52.198;21.020;2022-12-17T03:39:41;100587.59;;;-3.06;87.62
75747;BME280;64363;52.198;21.020;2022-12-17T03:42:26;100591.84;;;-3.10;88.21
75747;BME280;64363;52.198;21.020;2022-12-17T03:45:10;100595.13;;;-3.17;87.85
75747;BME280;64363;52.198;21.020;2022-12-17T03:48:09;100600.44;;;-3.14;87.64
75747;BME280;64363;52.198;21.020;2022-12-17T03:50:54;100598.66;;;-3.15;87.25
75747;BME280;64363;52.198;21.020;2022-12-17T03:53:39;100594.41;;;-3.11;87.46
75747;BME280;64363;52.198;21.020;2022-12-17T03:56:24;100592.63;;;-3.12;87.36
75747;BME280;64363;52.198;21.020;2022-12-17T03:59:09;100599.56;;;-3.13;87.69
75747;BME280;64363;52.198;21.020;2022-12-17T04:01:54;100604.91;;;-3.08;87.66
75747;BME280;64363;52.198;21.020;2022-12-17T04:04:38;100600.63;;;-3.06;87.94
75747;BME280;64363;52.198;21.020;2022-12-17T04:07:30;100589.38;;;-3.05;88.54
75747;BME280;64363;52.198;21.020;2022-12-17T04:10:14;100579.47;;;-3.17;86.55
75747;BME280;64363;52.198;21.020;2022-12-17T04:12:58;100594.25;;;-3.17;86.89
75747;BME280;64363;52.198;21.020;2022-12-17T04:15:42;100601.88;;;-3.25;87.00
75747;BME280;64363;52.198;21.020;2022-12-17T04:18:27;100602.53;;;-3.32;87.22
75747;BME280;64363;52.198;21.020;2022-12-17T04:21:11;100614.81;;;-3.28;86.67
75747;BME280;64363;52.198;21.020;2022-12-17T04:23:55;100620.97;;;-3.26;86.59
75747;BME280;64363;52.198;21.020;2022-12-17T04:26:40;100630.66;;;-3.20;86.19
75747;BME280;64363;52.198;21.020;2022-12-17T04:29:24;100639.38;;;-3.20;86.00
75747;BME280;64363;52.198;21.020;2022-12-17T04:32:08;100645.53;;;-3.16;86.38
75747;BME280;64363;52.198;21.020;2022-12-17T04:34:53;100641.13;;;-3.19;85.36
75747;BME280;64363;52.198;21.020;2022-12-17T04:37:37;100660.06;;;-3.26;84.83
75747;BME280;64363;52.198;21.020;2022-12-17T04:40:22;100659.88;;;-3.32;85.61
75747;BME280;64363;52.198;21.020;2022-12-17T04:43:08;100662.41;;;-3.35;85.27
75747;BME280;64363;52.198;21.020;2022-12-17T04:45:53;100672.03;;;-3.33;85.90
75747;BME280;64363;52.198;21.020;2022-12-17T04:48:37;100673.78;;;-3.32;85.77
75747;BME280;64363;52.198;21.020;2022-12-17T04:51:21;100670.31;;;-3.32;85.61
75747;BME280;64363;52.198;21.020;2022-12-17T04:54:06;100687.13;;;-3.21;85.58
75747;BME280;64363;52.198;21.020;2022-12-17T04:56:50;100697.31;;;-3.30;84.81
75747;BME280;64363;52.198;21.020;2022-12-17T04:59:34;100702.53;;;-3.30;84.26
75747;BME280;64363;52.198;21.020;2022-12-17T05:02:19;100718.19;;;-3.28;84.65
75747;BME280;64363;52.198;21.020;2022-12-17T05:05:03;100720.25;;;-3.17;85.34
75747;BME280;64363;52.198;21.020;2022-12-17T05:07:52;100728.84;;;-3.21;83.92
75747;BME280;64363;52.198;21.020;2022-12-17T05:10:37;100714.59;;;-3.34;84.22
75747;BME280;64363;52.198;21.020;2022-12-17T05:13:21;100727.03;;;-3.25;83.81
75747;BME280;64363;52.198;21.020;2022-12-17T05:16:05;100725.03;;;-3.32;84.42
75747;BME280;64363;52.198;21.020;2022-12-17T05:18:49;100726.88;;;-3.29;84.00
75747;BME280;64363;52.198;21.020;2022-12-17T05:21:34;100708.34;;;-3.39;84.42
75747;BME280;64363;52.198;21.020;2022-12-17T05:24:18;100719.88;;;-3.31;84.98
75747;BME280;64363;52.198;21.020;2022-12-17T05:27:03;100726.47;;;-3.43;84.20
75747;BME280;64363;52.198;21.020;2022-12-17T05:29:46;100721.44;;;-3.37;84.86
75747;BME280;64363;52.198;21.020;2022-12-17T05:32:31;100716.88;;;-3.44;84.36
75747;BME280;64363;52.198;21.020;2022-12-17T05:35:15;100715.34;;;-3.38;84.77
75747;BME280;64363;52.198;21.020;2022-12-17T05:38:08;100718.16;;;-3.30;83.83
75747;BME280;64363;52.198;21.020;2022-12-17T05:40:57;100717.88;;;-3.39;84.07
75747;BME280;64363;52.198;21.020;2022-12-17T05:43:42;100711.94;;;-3.35;84.81
75747;BME280;64363;52.198;21.020;2022-12-17T05:46:27;100724.97;;;-3.35;84.25
75747;BME280;64363;52.198;21.020;2022-12-17T05:49:12;100729.06;;;-3.43;83.99
75747;BME280;64363;52.198;21.020;2022-12-17T05:51:56;100724.78;;;-3.41;85.19
75747;BME280;64363;52.198;21.020;2022-12-17T05:54:41;100746.50;;;-3.41;85.16
75747;BME280;64363;52.198;21.020;2022-12-17T05:57:25;100731.72;;;-3.42;85.34
75747;BME280;64363;52.198;21.020;2022-12-17T06:00:09;100726.38;;;-3.46;84.00
75747;BME280;64363;52.198;21.020;2022-12-17T06:03:01;100734.94;;;-3.50;84.52
75747;BME280;64363;52.198;21.020;2022-12-17T06:05:46;100727.78;;;-3.57;84.64
75747;BME280;64363;52.198;21.020;2022-12-17T06:08:31;100724.31;;;-3.56;83.94
75747;BME280;64363;52.198;21.020;2022-12-17T06:11:15;100725.66;;;-3.69;84.86
75747;BME280;64363;52.198;21.020;2022-12-17T06:13:59;100725.66;;;-3.69;85.34
75747;BME280;64363;52.198;21.020;2022-12-17T06:16:44;100725.41;;;-3.77;85.71
75747;BME280;64363;52.198;21.020;2022-12-17T06:19:28;100734.88;;;-3.80;86.19
75747;BME280;64363;52.198;21.020;2022-12-17T06:22:12;100736.66;;;-3.79;86.15
75747;BME280;64363;52.198;21.020;2022-12-17T06:24:56;100736.66;;;-3.79;86.81
75747;BME280;64363;52.198;21.020;2022-12-17T06:27:40;100762.78;;;-3.76;87.45
75747;BME280;64363;52.198;21.020;2022-12-17T06:30:25;100778.47;;;-3.74;86.60
75747;BME280;64363;52.198;21.020;2022-12-17T06:33:09;100775.28;;;-3.66;87.47
75747;BME280;64363;52.198;21.020;2022-12-17T06:35:55;100775.38;;;-3.63;86.86
75747;BME280;64363;52.198;21.020;2022-12-17T06:38:40;100789.66;;;-3.50;87.48
75747;BME280;64363;52.198;21.020;2022-12-17T06:41:24;100792.41;;;-3.46;85.98
75747;BME280;64363;52.198;21.020;2022-12-17T06:44:08;100804.66;;;-3.43;85.85
75747;BME280;64363;52.198;21.020;2022-12-17T06:46:52;100793.31;;;-3.45;85.25
75747;BME280;64363;52.198;21.020;2022-12-17T06:49:37;100796.00;;;-3.42;86.13
75747;BME280;64363;52.198;21.020;2022-12-17T06:52:21;100797.44;;;-3.52;86.91
75747;BME280;64363;52.198;21.020;2022-12-17T06:55:05;100801.66;;;-3.55;85.69
75747;BME280;64363;52.198;21.020;2022-12-17T06:57:59;100800.75;;;-3.57;85.56
75747;BME280;64363;52.198;21.020;2022-12-17T07:00:45;100800.38;;;-3.68;86.08
75747;BME280;64363;52.198;21.020;2022-12-17T07:03:30;100808.16;;;-3.69;85.68
75747;BME280;64363;52.198;21.020;2022-12-17T07:06:14;100810.88;;;-3.66;85.29
75747;BME280;64363;52.198;21.020;2022-12-17T07:08:59;100817.94;;;-3.62;85.39
75747;BME280;64363;52.198;21.020;2022-12-17T07:11:43;100812.72;;;-3.62;84.29
75747;BME280;64363;52.198;21.020;2022-12-17T07:14:27;100825.91;;;-3.58;85.29
75747;BME280;64363;52.198;21.020;2022-12-17T07:17:12;100828.47;;;-3.59;84.56
75747;BME280;64363;52.198;21.020;2022-12-17T07:19:56;100810.88;;;-3.66;84.28
75747;BME280;64363;52.198;21.020;2022-12-17T07:22:40;100802.25;;;-3.64;83.94
75747;BME280;64363;52.198;21.020;2022-12-17T07:25:24;100819.75;;;-3.60;84.06
75747;BME280;64363;52.198;21.020;2022-12-17T07:28:09;100819.31;;;-3.73;84.89
75747;BME280;64363;52.198;21.020;2022-12-17T07:30:55;100818.22;;;-3.80;84.85
75747;BME280;64363;52.198;21.020;2022-12-17T07:33:39;100820.00;;;-3.79;84.75
75747;BME280;64363;52.198;21.020;2022-12-17T07:36:23;100829.25;;;-3.62;86.32
75747;BME280;64363;52.198;21.020;2022-12-17T07:39:07;100829.09;;;-3.66;85.59
75747;BME280;64363;52.198;21.020;2022-12-17T07:41:52;100835.94;;;-3.70;85.77
75747;BME280;64363;52.198;21.020;2022-12-17T07:44:36;100842.94;;;-3.67;84.41
75747;BME280;64363;52.198;21.020;2022-12-17T07:47:20;100852.72;;;-3.60;85.27
75747;BME280;64363;52.198;21.020;2022-12-17T07:50:05;100858.59;;;-3.67;84.70
75747;BME280;64363;52.198;21.020;2022-12-17T07:53:04;100854.09;;;-3.71;84.00
75747;BME280;64363;52.198;21.020;2022-12-17T07:55:50;100864.34;;;-3.78;84.82
75747;BME280;64363;52.198;21.020;2022-12-17T07:58:34;100862.66;;;-3.75;84.65
75747;BME280;64363;52.198;21.020;2022-12-17T08:01:19;100863.66;;;-3.72;84.85
75747;BME280;64363;52.198;21.020;2022-12-17T08:04:03;100857.53;;;-3.72;83.99
75747;BME280;64363;52.198;21.020;2022-12-17T08:06:50;100874.44;;;-3.61;84.22
75747;BME280;64363;52.198;21.020;2022-12-17T08:09:34;100872.66;;;-3.62;83.94
75747;BME280;64363;52.198;21.020;2022-12-17T08:12:18;100865.00;;;-3.58;84.55
75747;BME280;64363;52.198;21.020;2022-12-17T08:15:04;100858.91;;;-3.58;83.71
75747;BME280;64363;52.198;21.020;2022-12-17T08:17:48;100875.91;;;-3.69;85.01
75747;BME280;64363;52.198;21.020;2022-12-17T08:20:34;100881.22;;;-3.66;84.49
75747;BME280;64363;52.198;21.020;2022-12-17T08:23:18;100880.25;;;-3.68;85.06
75747;BME280;64363;52.198;21.020;2022-12-17T08:26:02;100880.25;;;-3.68;83.42
75747;BME280;64363;52.198;21.020;2022-12-17T08:28:47;100882.03;;;-3.67;83.85
75747;BME280;64363;52.198;21.020;2022-12-17T08:31:31;100904.44;;;-3.72;84.06
75747;BME280;64363;52.198;21.020;2022-12-17T08:34:15;100899.63;;;-3.60;83.46
75747;BME280;64363;52.198;21.020;2022-12-17T08:37:00;100899.84;;;-3.54;84.17
75747;BME280;64363;52.198;21.020;2022-12-17T08:39:44;100896.31;;;-3.56;84.00
75747;BME280;64363;52.198;21.020;2022-12-17T08:42:28;100906.94;;;-3.50;83.78
75747;BME280;64363;52.198;21.020;2022-12-17T08:45:13;100905.06;;;-3.54;83.34
75747;BME280;64363;52.198;21.020;2022-12-17T08:48:02;100903.09;;;-3.61;83.32
75747;BME280;64363;52.198;21.020;2022-12-17T08:50:47;100919.81;;;-3.55;83.93
75747;BME280;64363;52.198;21.020;2022-12-17T08:53:32;100922.34;;;-3.56;84.00
75747;BME280;64363;52.198;21.020;2022-12-17T08:56:17;100915.41;;;-3.57;83.49
75747;BME280;64363;52.198;21.020;2022-12-17T08:59:01;100927.56;;;-3.56;83.30
75747;BME280;64363;52.198;21.020;2022-12-17T09:01:45;100920.47;;;-3.60;83.58
75747;BME280;64363;52.198;21.020;2022-12-17T09:04:29;100930.81;;;-3.63;83.49
75747;BME280;64363;52.198;21.020;2022-12-17T09:07:13;100934.06;;;-3.70;83.20
75747;BME280;64363;52.198;21.020;2022-12-17T09:09:57;100937.94;;;-3.83;83.89
75747;BME280;64363;52.198;21.020;2022-12-17T09:12:42;100933.06;;;-3.74;84.42
75747;BME280;64363;52.198;21.020;2022-12-17T09:15:26;100941.03;;;-3.69;85.06
75747;BME280;64363;52.198;21.020;2022-12-17T09:18:10;100943.25;;;-3.80;84.80
75747;BME280;64363;52.198;21.020;2022-12-17T09:20:54;100942.16;;;-3.87;84.07
75747;BME280;64363;52.198;21.020;2022-12-17T09:23:39;100947.75;;;-3.76;84.47
75747;BME280;64363;52.198;21.020;2022-12-17T09:26:24;100948.56;;;-3.77;83.11
75747;BME280;64363;52.198;21.020;2022-12-17T09:29:08;100957.41;;;-3.73;83.20
75747;BME280;64363;52.198;21.020;2022-12-17T09:31:52;100960.19;;;-3.67;83.81
75747;BME280;64363;52.198;21.020;2022-12-17T09:34:37;100970.84;;;-3.61;83.56
75747;BME280;64363;52.198;21.020;2022-12-17T09:37:21;100964.38;;;-3.47;82.57
75747;BME280;64363;52.198;21.020;2022-12-17T09:40:07;100956.63;;;-3.46;82.36
75747;BME280;64363;52.198;21.020;2022-12-17T09:42:57;100965.31;;;-3.45;82.25
75747;BME280;64363;52.198;21.020;2022-12-17T09:46:01;100966.81;;;-3.52;81.83
75747;BME280;64363;52.198;21.020;2022-12-17T09:49:02;100962.19;;;-3.60;82.59
75747;BME280;64363;52.198;21.020;2022-12-17T09:51:48;100966.66;;;-3.82;83.01
75747;BME280;64363;52.198;21.020;2022-12-17T09:54:36;100961.00;;;-3.70;82.41
75747;BME280;64363;52.198;21.020;2022-12-17T09:57:27;100966.06;;;-3.73;83.53
75747;BME280;64363;52.198;21.020;2022-12-17T10:00:19;100962.53;;;-3.75;82.94
75747;BME280;64363;52.198;21.020;2022-12-17T10:03:11;100965.34;;;-3.69;83.01
75747;BME280;64363;52.198;21.020;2022-12-17T10:06:03;100967.94;;;-3.69;83.78
75747;BME280;64363;52.198;21.020;2022-12-17T10:08:54;100963.63;;;-3.68;82.40
75747;BME280;64363;52.198;21.020;2022-12-17T10:11:40;100974.91;;;-3.69;82.57
75747;BME280;64363;52.198;21.020;2022-12-17T10:14:25;100972.06;;;-3.75;83.17
75747;BME280;64363;52.198;21.020;2022-12-17T10:17:21;100971.28;;;-3.73;83.37
75747;BME280;64363;52.198;21.020;2022-12-17T10:20:32;100968.84;;;-3.68;84.02
75747;BME280;64363;52.198;21.020;2022-12-17T10:23:27;100967.81;;;-3.73;83.99
75747;BME280;64363;52.198;21.020;2022-12-17T10:29:22;100997.31;;;-3.98;85.61
75747;BME280;64363;52.198;21.020;2022-12-17T10:34:53;101017.72;;;-3.85;84.69
75747;BME280;64363;52.198;21.020;2022-12-17T10:37:38;101020.50;;;-3.81;84.08
75747;BME280;64363;52.198;21.020;2022-12-17T10:40:26;101030.19;;;-3.78;84.83
75747;BME280;64363;52.198;21.020;2022-12-17T10:43:32;101018.88;;;-3.79;84.67
75747;BME280;64363;52.198;21.020;2022-12-17T10:46:31;101021.28;;;-3.83;83.75
75747;BME280;64363;52.198;21.020;2022-12-17T10:49:18;101013.88;;;-3.96;83.38
75747;BME280;64363;52.198;21.020;2022-12-17T10:55:27;101016.44;;;-3.98;83.70
75747;BME280;64363;52.198;21.020;2022-12-17T10:58:24;101021.56;;;-3.99;82.75
75747;BME280;64363;52.198;21.020;2022-12-17T11:01:10;101021.81;;;-3.93;84.31
75747;BME280;64363;52.198;21.020;2022-12-17T11:03:56;101029.63;;;-3.93;83.10
75747;BME280;64363;52.198;21.020;2022-12-17T11:06:47;101022.94;;;-3.85;82.82
75747;BME280;64363;52.198;21.020;2022-12-17T11:12:34;101021.28;;;-3.83;82.01
75747;BME280;64363;52.198;21.020;2022-12-17T11:15:45;101022.81;;;-3.90;82.11
75747;BME280;64363;52.198;21.020;2022-12-17T11:19:00;101025.72;;;-4.04;83.06
75747;BME280;64363;52.198;21.020;2022-12-17T11:21:55;101040.13;;;-4.14;82.86
75747;BME280;64363;52.198;21.020;2022-12-17T11:24:58;101025.72;;;-4.04;82.80
75747;BME280;64363;52.198;21.020;2022-12-17T11:27:48;101021.47;;;-4.02;83.14
75747;BME280;64363;52.198;21.020;2022-12-17T11:30:44;101019.06;;;-3.96;83.82
75747;BME280;64363;52.198;21.020;2022-12-17T11:33:51;101020.94;;;-3.92;82.00
75747;BME280;64363;52.198;21.020;2022-12-17T11:36:44;101035.19;;;-4.06;82.69
75747;BME280;64363;52.198;21.020;2022-12-17T11:42:56;101039.78;;;-3.99;82.58
75747;BME280;64363;52.198;21.020;2022-12-17T11:48:54;101042.34;;;-4.01;82.91
75747;BME280;64363;52.198;21.020;2022-12-17T11:51:49;101047.78;;;-3.95;82.59
75747;BME280;64363;52.198;21.020;2022-12-17T11:57:50;101060.75;;;-3.96;81.97
75747;BME280;64363;52.198;21.020;2022-12-17T12:00:52;101077.16;;;-3.99;82.49
75747;BME280;64363;52.198;21.020;2022-12-17T12:07:18;101082.09;;;-4.05;82.20
75747;BME280;64363;52.198;21.020;2022-12-17T12:10:17;101078.09;;;-4.19;83.45
75747;BME280;64363;52.198;21.020;2022-12-17T12:13:21;101074.97;;;-4.10;83.00
75747;BME280;64363;52.198;21.020;2022-12-17T12:22:20;101071.31;;;-3.69;82.61
75747;BME280;64363;52.198;21.020;2022-12-17T12:31:12;101089.41;;;-3.49;81.41
75747;BME280;64363;52.198;21.020;2022-12-17T12:34:13;101100.56;;;-3.53;81.67
75747;BME280;64363;52.198;21.020;2022-12-17T12:37:01;101101.25;;;-3.58;82.11
75747;BME280;64363;52.198;21.020;2022-12-17T12:48:37;101101.84;;;-3.65;82.53
75747;BME280;64363;52.198;21.020;2022-12-17T12:51:33;101103.28;;;-3.73;83.38
75747;BME280;64363;52.198;21.020;2022-12-17T12:54:29;101115.75;;;-3.65;83.28
75747;BME280;64363;52.198;21.020;2022-12-17T13:00:38;101121.00;;;-3.41;83.01
75747;BME280;64363;52.198;21.020;2022-12-17T13:06:50;101112.16;;;-3.45;82.13
75747;BME280;64363;52.198;21.020;2022-12-17T13:09:28;101115.78;;;-3.41;82.65
75747;BME280;64363;52.198;21.020;2022-12-17T13:14:33;101113.03;;;-3.68;82.58
75747;BME280;64363;52.198;21.020;2022-12-17T13:19:59;101124.06;;;-3.75;82.73
75747;BME280;64363;52.198;21.020;2022-12-17T13:22:27;101126.75;;;-3.73;81.90
75747;BME280;64363;52.198;21.020;2022-12-17T13:25:17;101130.78;;;-3.82;83.02
75747;BME280;64363;52.198;21.020;2022-12-17T13:27:44;101125.31;;;-3.88;83.30
75747;BME280;64363;52.198;21.020;2022-12-17T13:38:26;101131.47;;;-3.86;83.06
75747;BME280;64363;52.198;21.020;2022-12-17T13:41:12;101136.09;;;-4.01;83.57
75747;BME280;64363;52.198;21.020;2022-12-17T13:44:21;101141.88;;;-4.08;84.10
75747;BME280;64363;52.198;21.020;2022-12-17T13:46:50;101138.47;;;-4.07;83.84
75747;BME280;64363;52.198;21.020;2022-12-17T13:49:28;101140.25;;;-4.06;84.33
75747;BME280;64363;52.198;21.020;2022-12-17T13:52:05;101138.94;;;-3.95;83.19
75747;BME280;64363;52.198;21.020;2022-12-17T13:54:32;101143.25;;;-3.95;83.55
75747;BME280;64363;52.198;21.020;2022-12-17T13:57:14;101128.44;;;-3.96;83.23
75747;BME280;64363;52.198;21.020;2022-12-17T13:59:48;101153.84;;;-3.91;83.00
75747;BME280;64363;52.198;21.020;2022-12-17T14:02:28;101155.16;;;-4.02;84.04
75747;BME280;64363;52.198;21.020;2022-12-17T14:04:56;101165.84;;;-4.16;83.99
75747;BME280;64363;52.198;21.020;2022-12-17T14:07:24;101165.63;;;-4.22;83.94
75747;BME280;64363;52.198;21.020;2022-12-17T14:09:51;101176.78;;;-4.25;84.14
75747;BME280;64363;52.198;21.020;2022-12-17T14:12:19;101169.34;;;-4.16;84.55
75747;BME280;64363;52.198;21.020;2022-12-17T14:17:37;101182.34;;;-4.16;84.00
75747;BME280;64363;52.198;21.020;2022-12-17T14:20:28;101184.84;;;-4.19;83.91
75747;BME280;64363;52.198;21.020;2022-12-17T14:22:59;101194.28;;;-4.21;83.45
75747;BME280;64363;52.198;21.020;2022-12-17T14:25:30;101190.88;;;-4.20;83.39
75747;BME280;64363;52.198;21.020;2022-12-17T14:31:07;101201.97;;;-4.24;82.13
75747;BME280;64363;52.198;21.020;2022-12-17T14:33:41;101192.28;;;-4.28;82.52
75747;BME280;64363;52.198;21.020;2022-12-17T14:38:52;101217.22;;;-4.33;83.08
75747;BME280;64363;52.198;21.020;2022-12-17T14:41:19;101205.13;;;-4.53;83.18
75747;BME280;64363;52.198;21.020;2022-12-17T14:44:04;101219.19;;;-4.48;83.43
75747;BME280;64363;52.198;21.020;2022-12-17T14:46:32;101218.66;;;-4.60;83.66
75747;BME280;64363;52.198;21.020;2022-12-17T14:49:00;101216.91;;;-4.61;84.00
75747;BME280;64363;52.198;21.020;2022-12-17T14:51:39;101199.25;;;-4.68;83.69
75747;BME280;64363;52.198;21.020;2022-12-17T14:54:18;101223.63;;;-4.66;83.94
75747;BME280;64363;52.198;21.020;2022-12-17T14:56:46;101219.28;;;-4.87;84.08
75747;BME280;64363;52.198;21.020;2022-12-17T14:59:32;101226.59;;;-4.78;84.07
75747;BME280;64363;52.198;21.020;2022-12-17T15:04:35;101234.00;;;-4.87;84.16
75747;BME280;64363;52.198;21.020;2022-12-17T15:07:01;101239.59;;;-4.78;84.13
75747;BME280;64363;52.198;21.020;2022-12-17T15:09:27;101248.63;;;-4.70;84.04
75747;BME280;64363;52.198;21.020;2022-12-17T15:11:53;101242.91;;;-4.82;84.72
75747;BME280;64363;52.198;21.020;2022-12-17T15:14:19;101251.38;;;-4.86;84.69
75747;BME280;64363;52.198;21.020;2022-12-17T15:16:45;101249.69;;;-4.86;84.02
75747;BME280;64363;52.198;21.020;2022-12-17T15:19:10;101252.44;;;-4.81;84.84
75747;BME280;64363;52.198;21.020;2022-12-17T15:21:36;101267.13;;;-4.83;84.47
75747;BME280;64363;52.198;21.020;2022-12-17T15:24:02;101259.72;;;-4.93;84.44
75747;BME280;64363;52.198;21.020;2022-12-17T15:26:28;101264.44;;;-4.85;84.33
75747;BME280;64363;52.198;21.020;2022-12-17T15:28:54;101262.13;;;-4.79;84.14
75747;BME280;64363;52.198;21.020;2022-12-17T15:31:20;101262.00;;;-4.82;83.86
75747;BME280;64363;52.198;21.020;2022-12-17T15:33:45;101269.84;;;-4.80;84.15
75747;BME280;64363;52.198;21.020;2022-12-17T15:36:11;101263.50;;;-4.87;84.25